Time;durP1;ratioP1;P1;durP2;ratioP2;P2;SDS_P1;SDS_P2;PMS_P1;PMS_P2;Temp;Humidity;BMP_temperature;BMP_pressure;BME280_temperature;BME280_humidity;BME280_pressure;Samples;Min_cycle;Max_cycle;Signal;HPM_P1;HPM_P2
2021/01/23 00:00:05;;;;;;;0.43;0.43;;;8.50;67.60;;;;;;6197036;28;20427;-75
2021/01/23 00:03:12;;;;;;;0.35;0.35;;;8.50;67.40;;;;;;6223455;28;20424;-75
2021/01/23 00:06:13;;;;;;;2.15;0.90;;;8.50;67.30;;;;;;6211365;28;20030;-75
2021/01/23 00:09:14;;;;;;;1.38;0.47;;;8.50;67.30;;;;;;6181456;28;20042;-76
2021/01/23 00:12:15;;;;;;;1.00;0.70;;;8.50;67.20;;;;;;6183789;28;20073;-75
2021/01/23 00:15:16;;;;;;;1.55;0.77;;;8.50;67.40;;;;;;6188928;28;20044;-76
2021/01/23 00:18:17;;;;;;;3.38;0.85;;;8.50;67.60;;;;;;6203700;28;20361;-75
2021/01/23 00:21:19;;;;;;;2.47;0.82;;;8.50;67.60;;;;;;6203595;28;20030;-75
2021/01/23 00:24:20;;;;;;;1.90;1.02;;;8.50;67.70;;;;;;6220223;28;20431;-75
2021/01/23 00:27:20;;;;;;;3.63;0.75;;;8.50;67.70;;;;;;6202292;28;20026;-75
2021/01/23 00:30:22;;;;;;;2.55;1.25;;;8.50;67.70;;;;;;6202311;28;20444;-75
2021/01/23 00:33:22;;;;;;;1.27;0.45;;;8.50;67.60;;;;;;6221972;28;20134;-75
2021/01/23 00:36:23;;;;;;;1.00;0.52;;;8.60;67.60;;;;;;6189726;28;20379;-74
2021/01/23 00:39:24;;;;;;;2.53;0.68;;;8.50;67.50;;;;;;6204318;28;20033;-75
2021/01/23 00:42:25;;;;;;;0.40;0.40;;;8.50;67.40;;;;;;6207833;28;20061;-75
2021/01/23 00:45:26;;;;;;;0.82;0.57;;;8.50;67.30;;;;;;6208112;28;20105;-75
2021/01/23 00:48:28;;;;;;;0.85;0.50;;;8.50;67.10;;;;;;6224777;28;20049;-74
2021/01/23 00:51:28;;;;;;;0.75;0.60;;;8.40;67.10;;;;;;6205355;28;20038;-75
2021/01/23 00:54:34;;;;;;;1.48;0.70;;;8.30;67.20;;;;;;6227478;28;20041;-75
2021/01/23 00:57:35;;;;;;;1.38;0.90;;;8.30;67.50;;;;;;6184474;28;20448;-74
2021/01/23 01:00:36;;;;;;;1.05;0.70;;;8.30;67.50;;;;;;6194570;28;20455;-74
2021/01/23 01:03:37;;;;;;;1.77;1.00;;;8.40;67.60;;;;;;6179742;28;20030;-75
2021/01/23 01:06:42;;;;;;;3.15;1.02;;;8.30;67.50;;;;;;6195110;28;20444;-75
2021/01/23 01:09:42;;;;;;;1.20;1.00;;;8.40;67.50;;;;;;6195488;28;20023;-75
2021/01/23 01:12:43;;;;;;;0.90;0.73;;;8.50;67.60;;;;;;6174856;28;20452;-74
2021/01/23 01:15:44;;;;;;;1.45;0.90;;;8.50;67.40;;;;;;6194027;28;20130;-77
2021/01/23 01:18:45;;;;;;;1.02;0.80;;;8.50;67.40;;;;;;6179176;28;20031;-75
2021/01/23 01:21:47;;;;;;;0.95;0.80;;;8.50;67.30;;;;;;6178179;28;20598;-75
2021/01/23 01:24:48;;;;;;;1.13;0.85;;;8.60;67.30;;;;;;6208372;28;20069;-75
2021/01/23 01:27:49;;;;;;;0.70;0.65;;;8.60;67.30;;;;;;6205190;28;20050;-75
2021/01/23 01:30:53;;;;;;;0.98;0.73;;;8.60;67.20;;;;;;6193518;28;20042;-75
2021/01/23 01:33:54;;;;;;;1.75;0.93;;;8.60;67.10;;;;;;6178413;28;20053;-75
2021/01/23 01:36:55;;;;;;;1.92;0.90;;;8.70;67.10;;;;;;6193994;28;20464;-75
2021/01/23 01:39:56;;;;;;;2.15;1.00;;;8.70;67.10;;;;;;6187718;28;20038;-74
2021/01/23 01:42:57;;;;;;;0.95;0.77;;;8.70;66.90;;;;;;6195726;28;20367;-75
2021/01/23 01:45:58;;;;;;;1.80;0.70;;;8.70;66.70;;;;;;6194728;28;20044;-75
2021/01/23 01:49:01;;;;;;;0.68;0.32;;;8.70;66.70;;;;;;6201816;28;20130;-75
2021/01/23 01:52:02;;;;;;;0.68;0.68;;;8.60;66.70;;;;;;6191408;28;20093;-75
2021/01/23 01:55:04;;;;;;;1.40;0.90;;;8.50;66.80;;;;;;6177973;28;20042;-75
2021/01/23 01:58:05;;;;;;;3.33;1.13;;;8.40;67.10;;;;;;6193504;28;20464;-75
2021/01/23 02:01:07;;;;;;;1.38;0.88;;;8.30;67.50;;;;;;6191253;28;20480;-76
2021/01/23 02:04:46;;;;;;;1.00;0.80;;;8.20;67.80;;;;;;6178429;28;20061;-76
2021/01/23 02:08:13;;;;;;;0.70;0.57;;;8.20;68.10;;;;;;6191747;28;20039;-75
2021/01/23 02:11:37;;;;;;;1.13;0.77;;;8.20;68.10;;;;;;6193308;28;20468;-75
2021/01/23 02:14:51;;;;;;;1.88;0.73;;;8.20;68.10;;;;;;6191880;28;20042;-76
2021/01/23 02:17:59;;;;;;;1.75;1.13;;;8.20;68.30;;;;;;6192347;28;20041;-75
2021/01/23 02:21:38;;;;;;;1.30;0.98;;;8.20;68.30;;;;;;6175438;28;20042;-77
2021/01/23 02:24:40;;;;;;;1.80;1.20;;;8.20;68.50;;;;;;6190085;28;20077;-77
2021/01/23 02:28:14;;;;;;;1.10;1.00;;;8.20;68.60;;;;;;6192874;28;20034;-78
2021/01/23 02:31:17;;;;;;;1.35;1.00;;;8.30;68.50;;;;;;6157305;28;20455;-77
2021/01/23 02:34:22;;;;;;;1.25;0.70;;;8.30;68.40;;;;;;6180405;28;20030;-77
2021/01/23 02:37:24;;;;;;;1.60;0.88;;;8.30;68.20;;;;;;6195766;28;20041;-76
2021/01/23 02:40:25;;;;;;;1.42;1.02;;;8.30;68.20;;;;;;6193759;28;20460;-76
2021/01/23 02:43:27;;;;;;;0.65;0.50;;;8.30;68.20;;;;;;6174283;28;20078;-76
2021/01/23 02:46:28;;;;;;;1.08;1.02;;;8.40;68.10;;;;;;6164968;28;20034;-75
2021/01/23 02:49:29;;;;;;;0.98;0.60;;;8.40;68.00;;;;;;6177083;28;20403;-77
2021/01/23 02:52:39;;;;;;;1.00;0.90;;;8.50;67.90;;;;;;6196550;28;20463;-77
2021/01/23 02:55:45;;;;;;;0.73;0.65;;;8.50;67.80;;;;;;6179144;28;20035;-77
2021/01/23 02:58:47;;;;;;;1.52;0.70;;;8.50;67.70;;;;;;6182645;28;20487;-76
2021/01/23 03:01:50;;;;;;;0.70;0.70;;;8.50;67.50;;;;;;6177960;28;20081;-77
2021/01/23 03:04:56;;;;;;;2.97;0.60;;;8.50;67.20;;;;;;6177007;28;20386;-76
2021/01/23 03:07:57;;;;;;;0.40;0.40;;;8.60;67.20;;;;;;6202552;28;20583;-79
2021/01/23 03:10:58;;;;;;;1.55;0.82;;;8.60;66.90;;;;;;6207454;28;20030;-77
2021/01/23 03:13:59;;;;;;;2.55;0.50;;;8.60;66.70;;;;;;6179813;28;20057;-76
2021/01/23 03:17:00;;;;;;;1.20;0.70;;;8.60;66.50;;;;;;6179350;28;20046;-76
2021/01/23 03:20:01;;;;;;;0.90;0.57;;;8.60;66.60;;;;;;6179975;28;20042;-77
2021/01/23 03:23:03;;;;;;;1.35;0.77;;;8.50;66.80;;;;;;6205642;28;20045;-77
2021/01/23 03:26:04;;;;;;;3.97;1.20;;;8.50;66.80;;;;;;6184040;28;20107;-76
2021/01/23 03:29:05;;;;;;;2.65;1.35;;;8.40;66.80;;;;;;6173404;28;20050;-76
2021/01/23 03:36:39;;;;;;;2.63;1.53;;;8.40;67.30;;;;;;6200389;28;20042;-76
2021/01/23 03:39:40;;;;;;;2.13;1.05;;;8.30;67.40;;;;;;6178965;28;20034;-76
2021/01/23 03:42:41;;;;;;;1.08;0.52;;;8.30;67.50;;;;;;6205460;28;20966;-74
2021/01/23 03:45:42;;;;;;;1.08;0.65;;;8.30;67.60;;;;;;6180994;28;20129;-74
2021/01/23 03:48:43;;;;;;;2.03;0.93;;;8.30;67.60;;;;;;6188504;28;20057;-76
2021/01/23 03:51:43;;;;;;;2.63;1.35;;;8.30;67.70;;;;;;6165400;28;20089;-74
2021/01/23 03:54:44;;;;;;;2.22;0.80;;;8.30;67.70;;;;;;6171597;28;20044;-74
2021/01/23 03:57:45;;;;;;;1.35;0.90;;;8.30;67.70;;;;;;6169584;28;20034;-74
2021/01/23 04:00:46;;;;;;;4.82;1.00;;;8.30;67.80;;;;;;6218779;28;20426;-74
2021/01/23 04:03:47;;;;;;;1.80;1.00;;;8.30;67.80;;;;;;6222248;28;20046;-74
2021/01/23 04:06:48;;;;;;;2.83;0.88;;;8.40;67.90;;;;;;6189977;28;20053;-74
2021/01/23 04:09:50;;;;;;;0.95;0.70;;;8.40;68.00;;;;;;6225382;28;20122;-75
2021/01/23 04:12:50;;;;;;;1.92;1.05;;;8.40;67.90;;;;;;6193707;28;20032;-75
2021/01/23 04:15:53;;;;;;;3.13;1.10;;;8.40;67.80;;;;;;6204381;28;20353;-75
2021/01/23 04:18:54;;;;;;;3.20;0.93;;;8.40;67.70;;;;;;6209557;28;20025;-75
2021/01/23 04:21:55;;;;;;;2.58;1.20;;;8.30;67.50;;;;;;6204149;28;20058;-75
2021/01/23 04:24:56;;;;;;;1.30;1.20;;;8.20;67.50;;;;;;6204494;28;20096;-76
2021/01/23 04:27:57;;;;;;;1.50;0.98;;;8.20;67.70;;;;;;6204023;28;20394;-75
2021/01/23 04:30:58;;;;;;;3.67;1.60;;;8.20;67.80;;;;;;6188356;28;20071;-75
2021/01/23 04:33:59;;;;;;;2.17;1.10;;;8.30;67.90;;;;;;6220973;28;20034;-75
2021/01/23 04:37:00;;;;;;;1.40;1.10;;;8.30;68.00;;;;;;6185522;28;20034;-75
2021/01/23 04:40:01;;;;;;;1.23;0.90;;;8.40;68.00;;;;;;6204643;28;20109;-75
2021/01/23 04:43:03;;;;;;;1.95;1.10;;;8.40;68.00;;;;;;6203723;28;20057;-75
2021/01/23 04:46:04;;;;;;;2.60;1.30;;;8.40;67.80;;;;;;6202309;28;20057;-75
2021/01/23 04:49:05;;;;;;;3.08;1.55;;;8.40;67.80;;;;;;6203222;28;20046;-75
2021/01/23 04:52:07;;;;;;;1.77;1.45;;;8.40;68.00;;;;;;6203628;28;20030;-74
2021/01/23 04:55:09;;;;;;;2.45;1.27;;;8.40;68.20;;;;;;6221134;28;20034;-75
2021/01/23 04:58:12;;;;;;;2.08;1.35;;;8.40;68.20;;;;;;6193846;28;20034;-74
2021/01/23 05:01:14;;;;;;;2.38;1.30;;;8.40;68.10;;;;;;6176177;28;20057;-75
2021/01/23 05:04:15;;;;;;;3.65;1.63;;;8.50;68.00;;;;;;6219498;28;20450;-74
2021/01/23 05:07:31;;;;;;;1.73;1.23;;;8.50;67.80;;;;;;6200110;28;20360;-74
2021/01/23 05:10:31;;;;;;;1.45;1.08;;;8.50;67.80;;;;;;6202911;28;20494;-76
2021/01/23 05:13:32;;;;;;;2.00;1.40;;;8.50;67.90;;;;;;6219338;28;20042;-74
2021/01/23 05:16:33;;;;;;;1.55;1.25;;;8.50;67.80;;;;;;6219705;28;20122;-74
2021/01/23 05:19:44;;;;;;;3.28;1.67;;;8.50;67.70;;;;;;6201717;28;20353;-74
2021/01/23 05:22:49;;;;;;;2.05;1.40;;;8.40;67.70;;;;;;6218424;28;20412;-75
2021/01/23 05:25:54;;;;;;;1.90;1.33;;;8.50;67.80;;;;;;6204116;28;20105;-74
2021/01/23 05:29:08;;;;;;;5.20;1.40;;;8.50;67.80;;;;;;6186358;28;20061;-75
2021/01/23 05:32:17;;;;;;;1.52;1.10;;;8.40;67.70;;;;;;6200629;28;20040;-74
2021/01/23 05:35:18;;;;;;;1.85;1.35;;;8.50;67.80;;;;;;6218537;28;20090;-74
2021/01/23 05:38:40;;;;;;;4.13;1.52;;;8.40;67.80;;;;;;6200448;28;20038;-75
2021/01/23 05:41:41;;;;;;;2.83;1.63;;;8.40;67.70;;;;;;6204224;28;20129;-76
2021/01/23 05:44:42;;;;;;;2.78;1.67;;;8.30;67.70;;;;;;6218723;28;20475;-75
2021/01/23 05:47:43;;;;;;;3.53;2.05;;;8.30;67.90;;;;;;6215408;28;20045;-74
2021/01/23 05:50:44;;;;;;;2.55;1.60;;;8.30;68.10;;;;;;6201157;28;20096;-75
2021/01/23 05:53:46;;;;;;;2.50;1.42;;;8.30;67.90;;;;;;6197310;28;20121;-75
2021/01/23 05:56:47;;;;;;;2.75;2.08;;;8.20;67.90;;;;;;6190448;28;20435;-75
2021/01/23 05:59:49;;;;;;;3.65;1.58;;;8.20;68.10;;;;;;6201905;28;20403;-76
2021/01/23 06:02:50;;;;;;;4.35;1.55;;;8.20;68.20;;;;;;6222242;28;20074;-75
2021/01/23 06:05:56;;;;;;;3.25;2.15;;;8.20;68.20;;;;;;6202776;28;20034;-76
2021/01/23 06:08:57;;;;;;;3.40;2.33;;;8.20;68.20;;;;;;6210322;28;20112;-75
2021/01/23 06:11:58;;;;;;;3.22;2.20;;;8.20;68.30;;;;;;6202531;28;20472;-75
2021/01/23 06:14:58;;;;;;;3.45;1.77;;;8.20;68.30;;;;;;6197300;28;20117;-76
2021/01/23 06:18:01;;;;;;;4.07;1.75;;;8.20;68.20;;;;;;6196902;28;20043;-76
2021/01/23 06:21:02;;;;;;;3.42;2.22;;;8.20;68.00;;;;;;6199167;28;20050;-75
2021/01/23 06:24:03;;;;;;;2.85;2.00;;;8.20;67.90;;;;;;6196708;28;20049;-75
2021/01/23 06:27:04;;;;;;;3.15;2.08;;;8.20;68.00;;;;;;6198327;28;20089;-75
2021/01/23 06:30:26;;;;;;;3.78;2.10;;;8.20;68.00;;;;;;6185127;28;20546;-76
2021/01/23 06:33:27;;;;;;;3.38;2.10;;;8.20;68.10;;;;;;6186665;28;20018;-75
2021/01/23 06:36:29;;;;;;;2.78;2.00;;;8.20;68.10;;;;;;6204563;28;20045;-75
2021/01/23 06:39:32;;;;;;;2.50;1.88;;;8.30;68.30;;;;;;6203005;28;20034;-76
2021/01/23 06:42:41;;;;;;;4.18;1.90;;;8.30;68.20;;;;;;6217868;28;20117;-76
2021/01/23 06:45:42;;;;;;;2.72;1.83;;;8.30;68.10;;;;;;6220649;28;20479;-75
2021/01/23 06:49:01;;;;;;;5.47;2.28;;;8.40;67.90;;;;;;6201211;28;20042;-75
2021/01/23 06:52:06;;;;;;;2.88;2.10;;;8.30;68.50;;;;;;6204150;28;20134;-75
2021/01/23 06:55:08;;;;;;;5.25;2.60;;;8.30;67.60;;;;;;6188280;28;20038;-75
2021/01/23 06:58:17;;;;;;;3.25;2.25;;;8.20;67.30;;;;;;6186855;28;20042;-75
2021/01/23 07:01:18;;;;;;;5.90;2.50;;;8.20;67.30;;;;;;6185716;28;20535;-74
2021/01/23 07:04:19;;;;;;;6.63;2.95;;;8.10;67.40;;;;;;6203015;28;20453;-76
2021/01/23 07:07:20;;;;;;;5.60;3.35;;;8.00;67.70;;;;;;6224977;28;20057;-75
2021/01/23 07:10:21;;;;;;;8.80;4.13;;;8.00;67.90;;;;;;6237631;28;20060;-76
2021/01/23 07:13:21;;;;;;;6.07;3.80;;;8.00;68.00;;;;;;6227254;28;20072;-76
2021/01/23 07:16:24;;;;;;;5.68;3.35;;;8.00;68.00;;;;;;6203502;28;20026;-76
2021/01/23 07:19:28;;;;;;;5.93;3.00;;;8.00;68.00;;;;;;6221486;28;20045;-76
2021/01/23 07:22:29;;;;;;;5.82;3.53;;;8.00;67.90;;;;;;6225371;28;20030;-75
2021/01/23 07:25:32;;;;;;;6.40;3.17;;;8.00;68.70;;;;;;6224853;28;20038;-75
2021/01/23 07:28:34;;;;;;;5.63;3.13;;;8.00;67.80;;;;;;6231947;28;20052;-75
2021/01/23 07:31:35;;;;;;;5.38;3.28;;;8.00;67.80;;;;;;6208731;28;20034;-76
2021/01/23 07:34:36;;;;;;;7.22;3.45;;;7.90;67.70;;;;;;6238972;28;20089;-75
2021/01/23 07:37:48;;;;;;;9.57;3.70;;;7.90;67.70;;;;;;6212164;28;20034;-77
2021/01/23 07:40:52;;;;;;;7.03;3.60;;;7.90;67.70;;;;;;6186399;28;20042;-75
2021/01/23 07:43:55;;;;;;;5.45;3.08;;;7.90;67.80;;;;;;6200443;28;20034;-76
2021/01/23 07:46:56;;;;;;;7.65;3.67;;;7.90;67.80;;;;;;6150728;28;20044;-76
2021/01/23 07:50:11;;;;;;;7.10;3.55;;;7.90;67.90;;;;;;6218593;28;20104;-75
2021/01/23 07:53:22;;;;;;;6.57;3.15;;;7.90;67.90;;;;;;6206539;28;20045;-76
2021/01/23 07:56:23;;;;;;;6.30;2.88;;;7.90;67.90;;;;;;6185384;28;20035;-77
2021/01/23 07:59:46;;;;;;;7.18;3.55;;;8.00;67.70;;;;;;6228713;28;20128;-77
2021/01/23 08:02:51;;;;;;;4.30;2.67;;;8.00;67.60;;;;;;6200025;28;20080;-77
2021/01/23 08:05:57;;;;;;;4.80;2.88;;;7.90;67.30;;;;;;6199514;28;20038;-77
2021/01/23 08:09:16;;;;;;;4.25;2.35;;;7.90;67.20;;;;;;6216216;28;20092;-76
2021/01/23 08:12:19;;;;;;;5.63;2.75;;;7.90;67.10;;;;;;6200897;28;20048;-75
2021/01/23 08:15:27;;;;;;;5.00;2.47;;;7.90;67.10;;;;;;6194687;28;20431;-75
2021/01/23 08:18:28;;;;;;;5.00;3.10;;;7.90;67.20;;;;;;6200679;28;20033;-75
2021/01/23 08:21:29;;;;;;;5.60;3.10;;;8.00;67.10;;;;;;6201076;28;20039;-75
2021/01/23 08:24:30;;;;;;;4.22;2.85;;;8.00;67.20;;;;;;6185904;28;20038;-76
2021/01/23 08:27:31;;;;;;;5.00;3.17;;;8.00;67.30;;;;;;6201725;28;20475;-75
2021/01/23 08:30:33;;;;;;;4.90;3.00;;;8.10;67.30;;;;;;6175521;28;20404;-75
2021/01/23 08:33:36;;;;;;;5.80;3.15;;;8.20;67.20;;;;;;6187088;28;20038;-75
2021/01/23 08:36:37;;;;;;;6.57;3.67;;;8.20;67.20;;;;;;6214717;28;20061;-75
2021/01/23 08:39:49;;;;;;;6.22;3.33;;;8.20;67.10;;;;;;6199393;28;20061;-75
2021/01/23 08:42:50;;;;;;;6.55;3.45;;;8.20;67.30;;;;;;6209104;28;20030;-76
2021/01/23 08:45:51;;;;;;;6.03;3.50;;;8.30;67.50;;;;;;6216368;28;20058;-77
2021/01/23 08:48:54;;;;;;;7.53;3.80;;;8.40;67.50;;;;;;6199754;28;20042;-77
2021/01/23 08:51:55;;;;;;;6.68;3.67;;;8.50;67.40;;;;;;6191381;28;20046;-76
2021/01/23 08:54:56;;;;;;;6.50;3.08;;;8.60;67.10;;;;;;6202352;28;20045;-76
2021/01/23 08:57:57;;;;;;;6.43;3.15;;;8.60;66.70;;;;;;6200652;28;20432;-75
2021/01/23 09:00:58;;;;;;;6.63;3.78;;;8.60;66.40;;;;;;6201392;28;20549;-76
2021/01/23 09:03:59;;;;;;;14.00;4.20;;;8.60;66.40;;;;;;6200075;28;20649;-75
2021/01/23 09:06:59;;;;;;;5.97;3.78;;;8.60;66.50;;;;;;6190419;28;20065;-75
2021/01/23 09:10:01;;;;;;;7.00;3.92;;;8.60;66.50;;;;;;6201010;28;20045;-76
2021/01/23 09:13:02;;;;;;;8.32;3.45;;;8.70;66.60;;;;;;6202118;28;20381;-76
2021/01/23 09:16:03;;;;;;;11.75;4.78;;;8.80;66.40;;;;;;6200643;28;20034;-76
2021/01/23 09:19:04;;;;;;;10.93;4.70;;;8.90;66.20;;;;;;6199685;28;20037;-77
2021/01/23 09:22:05;;;;;;;7.07;3.78;;;9.10;66.30;;;;;;6223487;28;20231;-76
2021/01/23 09:25:06;;;;;;;8.00;4.50;;;9.20;66.20;;;;;;6201015;28;20038;-76
2021/01/23 09:28:09;;;;;;;8.32;3.90;;;9.30;65.70;;;;;;6199218;28;20042;-76
2021/01/23 09:31:10;;;;;;;8.23;4.57;;;9.40;65.50;;;;;;6195914;28;20331;-76
2021/01/23 09:34:14;;;;;;;9.85;5.07;;;9.50;65.30;;;;;;6197895;28;20044;-76
2021/01/23 09:37:15;;;;;;;13.18;5.95;;;9.60;65.10;;;;;;6217162;28;20064;-76
2021/01/23 09:40:16;;;;;;;11.32;5.30;;;9.70;64.70;;;;;;6197448;28;20038;-75
2021/01/23 09:43:17;;;;;;;10.77;4.88;;;9.80;64.50;;;;;;6197857;28;20118;-76
2021/01/23 09:46:18;;;;;;;13.00;6.25;;;9.90;64.20;;;;;;6218027;28;20363;-75
2021/01/23 09:49:19;;;;;;;20.85;8.38;;;9.90;63.70;;;;;;6196921;28;20037;-76
2021/01/23 09:52:20;;;;;;;31.30;12.80;;;9.90;63.30;;;;;;6197676;28;20038;-75
2021/01/23 09:55:21;;;;;;;11.07;6.60;;;9.90;63.00;;;;;;6180467;28;20044;-76
2021/01/23 09:58:22;;;;;;;27.25;11.13;;;9.90;63.10;;;;;;6199121;28;20109;-78
2021/01/23 10:01:23;;;;;;;16.13;7.53;;;9.80;63.10;;;;;;6201035;28;20459;-75
2021/01/23 10:04:24;;;;;;;9.73;5.85;;;9.90;63.40;;;;;;6201091;28;20057;-76
2021/01/23 10:07:25;;;;;;;12.40;5.30;;;9.90;63.40;;;;;;6205388;28;20034;-76
2021/01/23 10:10:26;;;;;;;48.22;18.58;;;9.90;62.90;;;;;;6222654;28;20036;-76
2021/01/23 10:13:27;;;;;;;31.98;10.82;;;9.90;62.90;;;;;;6200827;28;20042;-76
2021/01/23 10:16:28;;;;;;;12.30;6.93;;;9.90;63.50;;;;;;6205138;28;20099;-77
2021/01/23 10:19:29;;;;;;;9.00;4.15;;;10.00;63.60;;;;;;6205626;28;20053;-76
2021/01/23 10:22:29;;;;;;;30.95;10.32;;;10.10;63.30;;;;;;6203984;28;20392;-76
2021/01/23 10:25:31;;;;;;;14.18;5.50;;;10.20;62.10;;;;;;6188163;28;20127;-75
2021/01/23 10:28:32;;;;;;;9.02;4.85;;;10.30;61.70;;;;;;6210572;28;20081;-77
2021/01/23 10:31:33;;;;;;;6.75;3.22;;;10.30;61.50;;;;;;6206341;28;20040;-78
2021/01/23 10:34:33;;;;;;;7.80;3.47;;;10.40;61.30;;;;;;6211107;28;20030;-77
2021/01/23 10:37:36;;;;;;;6.00;2.20;;;10.50;60.60;;;;;;6203224;28;20053;-76
2021/01/23 10:40:37;;;;;;;8.45;2.38;;;10.50;59.90;;;;;;6187840;28;20116;-77
2021/01/23 10:43:38;;;;;;;2.90;1.90;;;10.50;59.50;;;;;;6205485;28;20064;-79
2021/01/23 10:46:39;;;;;;;10.95;4.47;;;10.50;59.20;;;;;;6188347;28;20288;-77
2021/01/23 10:49:40;;;;;;;18.00;8.13;;;10.50;59.20;;;;;;6203037;28;20045;-78
2021/01/23 10:52:41;;;;;;;8.07;3.38;;;10.50;59.10;;;;;;6203867;28;20074;-77
2021/01/23 10:55:42;;;;;;;5.57;3.35;;;10.50;59.20;;;;;;6222588;28;20034;-77
2021/01/23 10:58:43;;;;;;;6.75;2.83;;;10.60;59.30;;;;;;6201812;28;20048;-77
2021/01/23 11:01:45;;;;;;;13.35;4.82;;;10.60;59.50;;;;;;6192415;28;20043;-76
2021/01/23 11:04:47;;;;;;;8.25;3.25;;;10.60;59.40;;;;;;6202697;28;20415;-76
2021/01/23 11:07:49;;;;;;;6.65;2.97;;;10.60;59.10;;;;;;6186541;28;20050;-75
2021/01/23 11:10:50;;;;;;;4.68;2.70;;;10.60;59.10;;;;;;6200265;28;20100;-77
2021/01/23 11:13:51;;;;;;;4.65;2.55;;;10.60;59.10;;;;;;6201673;28;20039;-76
2021/01/23 11:16:52;;;;;;;5.82;2.78;;;10.60;59.00;;;;;;6203706;28;20034;-77
2021/01/23 11:19:53;;;;;;;5.05;2.47;;;10.60;59.10;;;;;;6164229;28;20359;-78
2021/01/23 11:22:54;;;;;;;4.53;2.47;;;10.70;59.40;;;;;;6204406;28;20526;-77
2021/01/23 11:25:55;;;;;;;24.17;8.77;;;10.70;59.40;;;;;;6171656;28;20399;-76
2021/01/23 11:28:56;;;;;;;31.13;11.68;;;10.80;59.30;;;;;;6200705;28;20416;-77
2021/01/23 11:31:57;;;;;;;10.65;3.88;;;10.90;58.90;;;;;;6177910;28;20093;-78
2021/01/23 11:34:57;;;;;;;3.65;2.33;;;11.00;58.80;;;;;;6197411;28;20302;-77
2021/01/23 11:38:01;;;;;;;6.70;2.10;;;11.10;58.70;;;;;;6178852;28;20034;-77
2021/01/23 11:41:01;;;;;;;3.35;1.77;;;11.20;58.70;;;;;;6200909;28;20481;-76
2021/01/23 11:44:03;;;;;;;6.35;3.03;;;11.20;58.60;;;;;;6178502;28;20100;-77
2021/01/23 11:47:03;;;;;;;9.25;4.63;;;11.20;58.20;;;;;;6181675;28;20073;-78
2021/01/23 11:50:05;;;;;;;4.47;1.92;;;11.30;58.00;;;;;;6179848;28;20355;-76
2021/01/23 11:53:06;;;;;;;4.80;2.17;;;11.30;57.50;;;;;;6180686;28;20451;-76
2021/01/23 11:56:07;;;;;;;6.30;2.75;;;11.30;57.40;;;;;;6167874;28;20113;-78
2021/01/23 11:59:08;;;;;;;43.15;14.73;;;11.40;57.30;;;;;;6173617;28;20129;-76
2021/01/23 12:02:10;;;;;;;13.48;5.57;;;11.50;57.10;;;;;;6201958;28;20040;-76
2021/01/23 12:05:18;;;;;;;12.20;5.72;;;11.50;56.40;;;;;;6187029;28;20470;-76
2021/01/23 12:08:19;;;;;;;19.92;5.75;;;11.40;56.50;;;;;;6203684;28;20037;-77
2021/01/23 12:11:20;;;;;;;9.82;3.25;;;11.40;56.80;;;;;;6219438;28;20090;-77
2021/01/23 12:14:22;;;;;;;5.28;2.70;;;11.40;57.00;;;;;;6184614;28;20030;-77
2021/01/23 12:17:23;;;;;;;13.77;3.05;;;11.30;56.90;;;;;;6202504;28;20026;-75
2021/01/23 12:20:24;;;;;;;6.38;3.08;;;11.30;57.20;;;;;;6204846;28;20033;-76
2021/01/23 12:23:25;;;;;;;4.20;2.70;;;11.30;56.90;;;;;;6187498;28;20025;-77
2021/01/23 12:26:26;;;;;;;4.20;2.42;;;11.40;56.70;;;;;;6185168;28;20031;-77
2021/01/23 12:29:28;;;;;;;28.17;10.43;;;11.40;56.70;;;;;;6221301;28;20072;-77
2021/01/23 12:32:29;;;;;;;9.95;4.20;;;11.50;56.10;;;;;;6203762;28;20029;-76
2021/01/23 12:35:30;;;;;;;7.38;2.70;;;11.50;55.90;;;;;;6203375;28;20711;-76
2021/01/23 12:38:31;;;;;;;2.45;1.10;;;11.60;55.50;;;;;;6188065;28;20096;-76
2021/01/23 12:41:32;;;;;;;3.67;1.83;;;11.70;55.10;;;;;;6220860;28;20470;-76
2021/01/23 12:44:33;;;;;;;4.43;1.50;;;11.70;55.00;;;;;;6218264;28;20058;-75
2021/01/23 12:47:34;;;;;;;3.38;1.50;;;11.80;54.70;;;;;;6209911;28;20419;-76
2021/01/23 12:50:36;;;;;;;3.53;1.20;;;11.80;55.00;;;;;;6204240;28;20030;-76
2021/01/23 12:53:37;;;;;;;3.35;1.10;;;11.80;55.10;;;;;;6218667;28;20033;-76
2021/01/23 12:56:38;;;;;;;1.10;0.80;;;11.80;55.10;;;;;;6202774;28;20688;-75
2021/01/23 12:59:39;;;;;;;2.22;1.30;;;11.80;55.20;;;;;;6198309;28;20034;-76
2021/01/23 13:02:40;;;;;;;1.55;0.90;;;11.80;55.40;;;;;;6164523;28;20031;-77
2021/01/23 13:05:40;;;;;;;2.72;1.13;;;11.90;55.50;;;;;;6155604;28;20503;-76
2021/01/23 13:08:41;;;;;;;1.35;0.82;;;11.90;55.50;;;;;;6164898;28;20411;-76
2021/01/23 13:11:43;;;;;;;1.00;0.90;;;12.00;55.00;;;;;;6169846;28;20038;-75
2021/01/23 13:14:44;;;;;;;6.80;2.63;;;12.00;55.10;;;;;;6170872;28;20038;-76
2021/01/23 13:17:45;;;;;;;4.50;1.27;;;11.90;55.20;;;;;;6168546;28;20375;-77
2021/01/23 13:20:46;;;;;;;2.38;1.30;;;11.90;54.70;;;;;;6172734;28;20373;-76
2021/01/23 13:23:51;;;;;;;2.47;1.00;;;11.90;54.70;;;;;;6151348;28;20081;-75
2021/01/23 13:26:52;;;;;;;2.53;1.38;;;12.00;55.10;;;;;;6173592;28;20050;-76
2021/01/23 13:29:53;;;;;;;4.20;1.52;;;12.10;55.30;;;;;;6156446;28;20384;-76
2021/01/23 13:32:54;;;;;;;2.75;1.08;;;12.20;54.90;;;;;;6182842;28;20076;-77
2021/01/23 13:35:56;;;;;;;3.50;1.45;;;12.30;54.40;;;;;;6188555;28;20117;-75
2021/01/23 13:38:56;;;;;;;8.38;2.45;;;12.30;54.00;;;;;;6169800;28;20476;-77
2021/01/23 13:41:57;;;;;;;3.55;1.75;;;12.30;54.10;;;;;;6196095;28;20038;-76
2021/01/23 13:44:58;;;;;;;2.20;1.27;;;12.20;54.20;;;;;;6190089;28;20046;-76
2021/01/23 13:47:59;;;;;;;1.70;0.98;;;12.10;54.30;;;;;;6187241;28;20379;-77
2021/01/23 13:51:00;;;;;;;2.53;1.00;;;12.10;54.40;;;;;;6202982;28;20364;-77
2021/01/23 13:54:01;;;;;;;3.05;1.00;;;12.00;54.90;;;;;;6187141;28;20479;-75
2021/01/23 13:57:02;;;;;;;2.17;0.95;;;12.00;55.20;;;;;;6188820;28;20049;-76
2021/01/23 14:00:04;;;;;;;1.55;1.05;;;12.00;55.10;;;;;;6210826;28;20367;-75
2021/01/23 14:03:10;;;;;;;4.88;0.60;;;11.90;55.20;;;;;;6219801;28;20045;-77
2021/01/23 14:06:11;;;;;;;5.47;1.42;;;11.80;55.10;;;;;;6203435;28;20038;-77
2021/01/23 14:09:12;;;;;;;2.20;1.20;;;11.90;55.50;;;;;;6221399;28;20038;-77
2021/01/23 14:12:12;;;;;;;17.90;5.68;;;11.90;55.70;;;;;;6205215;28;20423;-76
2021/01/23 14:15:15;;;;;;;5.35;2.40;;;11.90;56.00;;;;;;6214468;28;20034;-76
2021/01/23 14:18:16;;;;;;;3.28;1.10;;;11.90;56.20;;;;;;6193145;28;20099;-75
2021/01/23 14:21:17;;;;;;;2.35;1.58;;;11.90;56.20;;;;;;6192708;28;20440;-76
2021/01/23 14:24:18;;;;;;;2.92;0.93;;;11.90;56.50;;;;;;6191431;28;20399;-77
2021/01/23 14:27:19;;;;;;;2.25;0.73;;;11.90;56.70;;;;;;6191745;28;20068;-75
2021/01/23 14:30:20;;;;;;;2.03;0.82;;;11.90;56.60;;;;;;6175586;28;20034;-77
2021/01/23 14:33:21;;;;;;;0.93;0.47;;;11.90;56.80;;;;;;6191676;28;20040;-77
2021/01/23 14:36:22;;;;;;;3.33;0.82;;;11.80;56.90;;;;;;6193167;28;20034;-77
2021/01/23 14:39:23;;;;;;;1.13;0.60;;;11.70;57.00;;;;;;6192132;28;20038;-76
2021/01/23 14:42:25;;;;;;;1.02;0.50;;;11.80;57.40;;;;;;6208900;28;20053;-77
2021/01/23 14:45:26;;;;;;;4.93;0.95;;;11.80;57.50;;;;;;6193761;28;20118;-77
2021/01/23 14:48:27;;;;;;;1.52;0.63;;;11.80;57.70;;;;;;6201306;28;20064;-77
2021/01/23 14:51:28;;;;;;;1.70;1.00;;;11.80;57.80;;;;;;6188563;28;20042;-76
2021/01/23 14:54:29;;;;;;;0.95;0.45;;;11.90;57.90;;;;;;6223093;28;20073;-76
2021/01/23 14:57:30;;;;;;;1.92;0.57;;;11.90;57.80;;;;;;6207451;28;20041;-76
2021/01/23 15:00:32;;;;;;;1.48;0.60;;;12.00;57.50;;;;;;6225546;28;20038;-77
2021/01/23 15:03:33;;;;;;;1.65;0.60;;;12.00;57.30;;;;;;6220570;28;20379;-76
2021/01/23 15:06:34;;;;;;;0.38;0.28;;;11.90;57.30;;;;;;6209367;28;20056;-75
2021/01/23 15:09:35;;;;;;;0.47;0.40;;;12.10;56.80;;;;;;6226489;28;20721;-76
2021/01/23 15:12:37;;;;;;;1.10;0.60;;;12.10;56.80;;;;;;6239742;28;20038;-76
2021/01/23 15:15:40;;;;;;;0.85;0.55;;;12.00;56.60;;;;;;6196520;28;20113;-77
2021/01/23 15:18:42;;;;;;;0.68;0.43;;;12.00;56.80;;;;;;6230389;28;20482;-77
2021/01/23 15:21:43;;;;;;;6.65;2.92;;;12.00;56.80;;;;;;6224437;28;20037;-77
2021/01/23 15:24:44;;;;;;;11.80;4.18;;;12.00;56.90;;;;;;6225335;28;20070;-77
2021/01/23 15:27:44;;;;;;;3.35;1.70;;;12.00;56.90;;;;;;6209416;28;20026;-75
2021/01/23 15:30:46;;;;;;;2.75;1.25;;;12.00;56.90;;;;;;6190239;28;20113;-76
2021/01/23 15:33:46;;;;;;;3.50;1.00;;;12.00;56.80;;;;;;6222639;28;20056;-76
2021/01/23 15:36:47;;;;;;;2.83;0.98;;;12.00;57.10;;;;;;6222040;28;20030;-77
2021/01/23 15:39:48;;;;;;;0.80;0.68;;;12.10;57.20;;;;;;6219116;28;20125;-76
2021/01/23 15:42:49;;;;;;;1.23;0.95;;;12.10;57.00;;;;;;6205914;28;20042;-76
2021/01/23 15:45:50;;;;;;;2.17;0.90;;;12.00;57.00;;;;;;6205683;28;20107;-77
2021/01/23 15:48:51;;;;;;;2.58;0.85;;;12.00;57.00;;;;;;6205591;28;20398;-76
2021/01/23 15:51:53;;;;;;;1.98;1.00;;;12.00;57.00;;;;;;6206056;28;20053;-77
2021/01/23 15:54:57;;;;;;;0.88;0.50;;;11.90;56.70;;;;;;6204384;28;20100;-75
2021/01/23 15:57:58;;;;;;;1.80;1.08;;;11.90;56.60;;;;;;6205392;28;20034;-77
2021/01/23 16:00:59;;;;;;;1.50;1.00;;;11.90;56.60;;;;;;6186793;28;20455;-75